Wabash, IN (46992)

8:14 AM EDT on September 22, 2014 (GMT -0400)
Wabash Co. Central Dispatch | Change Station
CLOSE
Current Station
Personal Weather Station
Location: Wabash, IN
Elevation: 764 ft
Nearby Weather Stations

Elev 764 ft 40.82 °N, 85.80 °W | Updated 27 days ago

Fog
Fog
43 °F
Feels Like 43 °F
N
6
Wind Variable Wind from NW
Gusts 8 mph

Today
High -- | Low -- °F
--% Chance of Precip.
Yesterday
High -- | Low -- °F
Precip. -- in
7:30 AM 7:40 PM
Waning Crescent, 3% visible
Pressure 30.23 in
Visibility 10.0 miles
Clouds Clear
Dew Point 40 °F
Humidity 90%
Rainfall 0.00 in
Snow Depth Not available.
UV 0 out of 12
Pollen 4.80 out of 12
Air Quality Not available.
Flu Activity Not available.
METAR KGUS 221158Z AUTO 00000KT 10SM CLR 06/06 A3021 RMK AO2 SLP235 70010 T00640064 10100 20062 52021

More Conditions Fewer Conditions

Pressure 30.23 in
Visibility 10.0 miles
Clouds Clear
Dew Point 40 °F
Humidity 90%
Rainfall 0.00 in
Snow Depth Not available.
UV 0 out of 12
Pollen 4.80 out of 12
Air Quality Not available.
Flu Activity Not available.
METAR KGUS 221158Z AUTO 00000KT 10SM CLR 06/06 A3021 RMK AO2 SLP235 70010 T00640064 10100 20062 52021

More Conditions Fewer Conditions

10-Day Weather Forecast

Almanac

Astronomy

Sep. 22, 2014 Rise Set
Actual Time 7:30 AM EDT 7:40 PM EDT
Civil Twilight 7:03 AM EDT 8:07 PM EDT
Nautical Twilight 6:31 AM EDT 8:39 PM EDT
Astronomical Twilight 5:58 AM EDT 9:12 PM EDT
Moon 5:58 AM EDT 6:48 PM EDT
Length of Visible Light 13h 04m
Length of Day
12h 09m
Tomorrow will be 2m 42s shorter.
Waning Crescent, 3% of the Moon is Illuminated
Today
Waning Crescent
Sep 24
New
Oct 1
First Quarter
Oct 8
Full
Oct 15
Last Quarter

Today's Extremes

State Highs State Lows

Community

WunderPhotos

Upload Photos

1,755,417 photos uploaded!

WunderBlogs® & News

Nearby

Snow Depth

Station Depth Elevation
No new snow has been reported.

Earthquake Activity

City Distance Mag. Time & Date
No recent earthquake activity has been reported nearby.
Minimum magnitude displayed is 2.5.

Coastal Water Temperatures

Place Temperature
No Stations Reporting

Nearby Weather Stations